createdAt,value
2023-02-06T00:01:28.955Z,8.43
2023-02-06T00:03:55.383Z,9.73
2023-02-06T00:06:21.846Z,8.80
2023-02-06T00:08:48.185Z,7.87
2023-02-06T00:11:16.749Z,9.77
2023-02-06T00:13:49.676Z,9.97
2023-02-06T00:16:22.077Z,10.53
2023-02-06T00:18:50.098Z,7.87
2023-02-06T00:21:20.364Z,9.57
2023-02-06T00:23:53.009Z,8.27
2023-02-06T00:26:22.196Z,7.37
2023-02-06T00:28:48.604Z,8.37
2023-02-06T00:33:57.016Z,12.43
2023-02-06T00:36:26.050Z,9.17
2023-02-06T00:38:52.611Z,7.57
2023-02-06T00:41:19.642Z,8.20
2023-02-06T00:43:46.042Z,7.37
2023-02-06T00:46:12.546Z,7.07
2023-02-06T00:48:46.693Z,10.10
2023-02-06T00:51:39.423Z,9.37
2023-02-06T00:54:06.459Z,9.83
2023-02-06T00:56:35.824Z,8.27
2023-02-06T00:59:02.370Z,8.37
2023-02-06T01:01:29.405Z,7.60
2023-02-06T01:03:58.467Z,7.13
2023-02-06T01:06:24.907Z,8.00
2023-02-06T01:08:52.978Z,7.63
2023-02-06T01:11:20.693Z,7.00
2023-02-06T01:13:48.034Z,8.03
2023-02-06T01:16:16.726Z,9.97
2023-02-06T01:18:45.474Z,8.80
2023-02-06T01:21:13.146Z,7.40
2023-02-06T01:23:42.057Z,7.50
2023-02-06T01:26:11.609Z,11.00
2023-02-06T01:28:38.787Z,10.50
2023-02-06T01:31:11.558Z,9.17
2023-02-06T01:33:39.284Z,8.33
2023-02-06T01:36:05.852Z,7.23
2023-02-06T01:38:32.605Z,7.93
2023-02-06T01:40:59.863Z,8.93
2023-02-06T01:43:28.167Z,7.00
2023-02-06T01:45:55.110Z,7.77
2023-02-06T01:48:25.201Z,9.80
2023-02-06T01:50:55.090Z,8.70
2023-02-06T01:53:23.370Z,7.20
2023-02-06T01:55:51.045Z,6.50
2023-02-06T01:58:21.006Z,8.57
2023-02-06T02:00:57.993Z,8.97
2023-02-06T02:03:24.659Z,8.50
2023-02-06T02:05:52.234Z,8.13
2023-02-06T02:08:45.668Z,9.73
2023-02-06T02:11:22.511Z,9.50
2023-02-06T02:13:50.485Z,7.00
2023-02-06T02:16:17.292Z,7.23
2023-02-06T02:19:07.350Z,8.73
2023-02-06T02:21:34.876Z,6.80
2023-02-06T02:24:08.552Z,7.53
2023-02-06T02:26:46.279Z,7.73
2023-02-06T02:29:36.503Z,8.73
2023-02-06T02:32:08.911Z,8.50
2023-02-06T02:34:35.213Z,8.27
2023-02-06T02:37:11.345Z,6.40
2023-02-06T02:39:43.152Z,7.68
2023-02-06T02:42:13.090Z,7.47
2023-02-06T02:44:46.561Z,7.87
2023-02-06T02:47:28.270Z,5.80
2023-02-06T02:52:50.877Z,7.53
2023-02-06T02:55:43.535Z,9.83
2023-02-06T02:58:15.200Z,6.47
2023-02-06T03:00:54.233Z,9.03
2023-02-06T03:03:39.819Z,7.50
2023-02-06T03:06:23.470Z,7.73
2023-02-06T03:08:58.600Z,8.60
2023-02-06T03:11:34.446Z,7.33
2023-02-06T03:14:04.735Z,5.72
2023-02-06T03:16:50.934Z,5.60
2023-02-06T03:19:21.802Z,6.53
2023-02-06T03:21:51.297Z,7.23
2023-02-06T03:24:24.097Z,6.67
2023-02-06T03:26:51.909Z,7.03
2023-02-06T03:29:18.794Z,8.73
2023-02-06T03:31:47.512Z,6.63
2023-02-06T03:34:25.476Z,6.80
2023-02-06T03:36:52.608Z,6.83
2023-02-06T03:39:19.153Z,5.53
2023-02-06T03:41:47.029Z,8.67
2023-02-06T03:44:19.267Z,6.27
2023-02-06T03:46:49.740Z,6.63
2023-02-06T03:49:21.142Z,7.10
2023-02-06T03:51:49.116Z,8.30
2023-02-06T03:54:17.158Z,7.70
2023-02-06T03:56:45.826Z,7.93
2023-02-06T03:59:12.902Z,6.50
2023-02-06T04:01:41.170Z,7.40
2023-02-06T04:04:10.836Z,7.60
2023-02-06T04:06:37.342Z,8.53
2023-02-06T04:09:03.713Z,9.13
2023-02-06T04:11:31.826Z,6.63
2023-02-06T04:14:01.439Z,10.13
2023-02-06T04:16:28.525Z,6.40
2023-02-06T04:18:54.885Z,7.90
2023-02-06T04:21:21.311Z,7.77
2023-02-06T04:23:47.684Z,8.13
2023-02-06T04:26:14.102Z,8.30
2023-02-06T04:28:50.999Z,9.30
2023-02-06T04:31:24.851Z,5.97
2023-02-06T04:34:20.644Z,6.40
2023-02-06T04:36:50.172Z,6.67
2023-02-06T04:39:19.708Z,7.47
2023-02-06T04:41:46.031Z,7.83
2023-02-06T04:44:12.513Z,7.30
2023-02-06T04:46:39.592Z,7.47
2023-02-06T04:49:06.108Z,5.77
2023-02-06T04:51:32.725Z,7.97
2023-02-06T04:53:59.991Z,7.97
2023-02-06T04:56:26.368Z,7.47
2023-02-06T04:58:52.804Z,9.40
2023-02-06T05:01:19.716Z,6.80
2023-02-06T05:03:46.759Z,8.73
2023-02-06T05:06:13.449Z,8.20
2023-02-06T05:08:40.644Z,7.00
2023-02-06T05:11:07.061Z,6.10
2023-02-06T05:13:33.997Z,9.90
2023-02-06T05:16:11.029Z,7.07
2023-02-06T05:18:37.777Z,7.60
2023-02-06T05:21:05.795Z,5.63
2023-02-06T05:23:32.523Z,6.80
2023-02-06T05:25:59.604Z,7.33
2023-02-06T05:28:33.283Z,7.27
2023-02-06T05:31:00.575Z,7.67
2023-02-06T05:33:27.196Z,8.37
2023-02-06T05:35:57.526Z,10.10
2023-02-06T05:38:23.824Z,9.77
2023-02-06T05:40:50.847Z,6.43
2023-02-06T05:43:17.276Z,7.80
2023-02-06T05:45:43.625Z,7.90
2023-02-06T05:48:09.909Z,9.20
2023-02-06T05:50:39.224Z,7.57
2023-02-06T05:53:14.904Z,5.87
2023-02-06T05:55:41.252Z,9.67
2023-02-06T05:58:07.536Z,6.40
2023-02-06T06:00:34.353Z,6.00
2023-02-06T06:03:01.713Z,7.07
2023-02-06T06:05:28.011Z,8.27
2023-02-06T06:07:54.451Z,7.50
2023-02-06T06:10:22.813Z,7.93
2023-02-06T06:12:49.350Z,8.57
2023-02-06T06:15:15.816Z,5.93
2023-02-06T06:17:42.563Z,9.03
2023-02-06T06:20:09.121Z,9.03
2023-02-06T06:22:35.885Z,5.03
2023-02-06T06:25:05.035Z,7.17
2023-02-06T06:27:31.568Z,6.30
2023-02-06T06:29:58.596Z,7.67
2023-02-06T06:32:25.210Z,11.07
2023-02-06T06:34:52.563Z,6.67
2023-02-06T06:37:20.229Z,6.63
2023-02-06T06:39:46.532Z,9.00
2023-02-06T06:42:12.872Z,6.07
2023-02-06T06:44:40.633Z,8.27
2023-02-06T06:47:08.001Z,6.73
2023-02-06T06:49:44.477Z,9.10
2023-02-06T06:52:23.987Z,7.30
2023-02-06T06:54:52.654Z,8.07
2023-02-06T06:57:19.336Z,7.67
2023-02-06T06:59:45.642Z,5.77
2023-02-06T07:02:14.264Z,9.33
2023-02-06T07:04:40.561Z,6.90
2023-02-06T07:07:07.826Z,6.93
2023-02-06T07:09:35.279Z,5.20
2023-02-06T07:12:01.576Z,6.77
2023-02-06T07:14:28.962Z,5.83
2023-02-06T07:16:56.498Z,5.77
2023-02-06T07:19:28.809Z,6.40
2023-02-06T07:21:55.135Z,4.53
2023-02-06T07:24:21.418Z,5.87
2023-02-06T07:26:48.463Z,6.67
2023-02-06T07:29:14.767Z,5.33
2023-02-06T07:31:41.298Z,3.60
2023-02-06T07:34:07.665Z,5.70
2023-02-06T07:36:33.992Z,4.10
2023-02-06T07:39:01.878Z,3.60
2023-02-06T07:41:28.796Z,3.97
2023-02-06T07:43:55.886Z,9.83
2023-02-06T07:46:22.272Z,3.73
2023-02-06T07:48:48.650Z,2.20
2023-02-06T07:51:14.957Z,4.23
2023-02-06T07:53:41.312Z,3.83
2023-02-06T07:56:11.846Z,4.67
2023-02-06T07:58:39.032Z,3.17
2023-02-06T08:01:06.172Z,3.40
2023-02-06T08:03:33.065Z,3.40
2023-02-06T08:05:59.414Z,2.47
2023-02-06T08:08:33.467Z,2.63
2023-02-06T08:11:03.721Z,4.70
2023-02-06T08:13:30.110Z,2.70
2023-02-06T08:15:56.415Z,3.47
2023-02-06T08:18:22.811Z,3.13
2023-02-06T08:20:49.100Z,3.17
2023-02-06T08:23:15.437Z,2.87
2023-02-06T08:25:41.800Z,3.50
2023-02-06T08:28:08.223Z,2.40
2023-02-06T08:30:36.861Z,3.00
2023-02-06T08:33:03.303Z,6.37
2023-02-06T08:35:30.662Z,1.30
2023-02-06T08:37:58.868Z,3.63
2023-02-06T08:40:27.133Z,3.53
2023-02-06T08:42:53.417Z,3.43
2023-02-06T08:45:22.631Z,4.70
2023-02-06T08:47:50.456Z,3.47
2023-02-06T08:50:18.389Z,3.97
2023-02-06T08:52:44.715Z,5.17
2023-02-06T08:55:11.314Z,3.10
2023-02-06T08:57:37.668Z,3.40
2023-02-06T09:00:04.400Z,3.40
2023-02-06T09:02:30.724Z,2.60
2023-02-06T09:04:57.043Z,2.50
2023-02-06T09:07:24.476Z,3.07
2023-02-06T09:09:50.741Z,2.43
2023-02-06T09:12:17.050Z,2.60
2023-02-06T09:14:43.366Z,4.73
2023-02-06T09:17:09.722Z,2.37
2023-02-06T09:19:36.231Z,3.70
2023-02-06T09:22:06.907Z,4.70
2023-02-06T09:24:34.268Z,4.13
2023-02-06T09:27:01.163Z,4.93
2023-02-06T09:29:29.476Z,3.67
2023-02-06T09:31:57.259Z,4.37
2023-02-06T09:34:26.256Z,3.13
2023-02-06T09:36:54.415Z,6.50
2023-02-06T09:39:21.039Z,3.10
2023-02-06T09:41:47.350Z,2.50
2023-02-06T09:44:16.476Z,4.33
2023-02-06T09:46:51.509Z,3.60
2023-02-06T09:49:20.974Z,4.80
2023-02-06T09:51:50.652Z,3.77
2023-02-06T09:54:23.142Z,2.53
2023-02-06T09:56:52.373Z,2.70
2023-02-06T09:59:43.912Z,3.23
2023-02-06T10:02:16.214Z,2.53
2023-02-06T10:05:06.986Z,3.50
2023-02-06T10:07:45.591Z,2.43
2023-02-06T10:10:15.430Z,3.03
2023-02-06T10:12:46.078Z,2.93
2023-02-06T10:15:18.154Z,4.03
2023-02-06T10:17:53.925Z,4.33
2023-02-06T10:20:26.046Z,2.33
2023-02-06T10:22:52.550Z,1.97
2023-02-06T10:25:29.924Z,2.70
2023-02-06T10:27:58.178Z,2.23
2023-02-06T10:30:52.768Z,2.43
2023-02-06T10:33:26.986Z,3.27
2023-02-06T10:36:05.737Z,2.53
2023-02-06T10:38:38.837Z,3.53
2023-02-06T10:41:23.286Z,4.60
2023-02-06T10:43:53.207Z,3.97
2023-02-06T10:46:31.264Z,8.30
2023-02-06T10:49:01.186Z,4.40
2023-02-06T10:51:33.594Z,3.27
2023-02-06T10:54:02.054Z,2.83
2023-02-06T10:56:37.292Z,3.77
2023-02-06T10:59:08.331Z,2.00
2023-02-06T11:01:36.905Z,3.57
2023-02-06T11:04:07.321Z,4.17
2023-02-06T11:06:34.490Z,4.30
2023-02-06T11:09:01.490Z,4.00
2023-02-06T11:11:31.977Z,2.38
2023-02-06T11:14:05.519Z,4.17
2023-02-06T11:16:32.830Z,3.17
2023-02-06T11:19:01.035Z,3.20
2023-02-06T11:21:49.846Z,2.90
2023-02-06T11:24:17.096Z,2.78
2023-02-06T11:26:46.265Z,3.65
2023-02-06T11:29:27.052Z,2.37
2023-02-06T11:31:58.178Z,2.93
2023-02-06T11:34:26.971Z,3.10
2023-02-06T11:36:55.507Z,2.70
2023-02-06T11:39:38.508Z,2.70
2023-02-06T11:42:20.343Z,3.60
2023-02-06T11:44:50.545Z,3.07
2023-02-06T11:47:32.294Z,3.37
2023-02-06T11:50:14.188Z,4.07
2023-02-06T11:52:41.957Z,5.60
2023-02-06T11:55:29.916Z,2.45
2023-02-06T11:58:04.780Z,2.80
2023-02-06T12:00:31.397Z,2.92
2023-02-06T12:02:58.761Z,4.28
2023-02-06T12:05:27.974Z,4.03
2023-02-06T12:08:00.214Z,2.60
2023-02-06T12:10:28.856Z,3.53
2023-02-06T12:12:57.374Z,2.72
2023-02-06T12:15:45.534Z,4.07
2023-02-06T12:33:21.596Z,3.97
2023-02-06T12:39:01.140Z,3.75
2023-02-06T12:46:04.608Z,3.22
2023-02-06T12:48:39.375Z,3.55
2023-02-06T12:51:17.898Z,4.40
2023-02-06T12:53:50.587Z,3.42
2023-02-06T12:56:38.625Z,3.28
2023-02-06T12:59:14.288Z,3.05
2023-02-06T13:04:12.466Z,3.90
2023-02-06T13:06:52.957Z,3.03
2023-02-06T13:09:34.729Z,3.67
2023-02-06T13:12:14.476Z,3.53
2023-02-06T13:14:48.418Z,2.58
2023-02-06T13:17:25.435Z,3.90
2023-02-06T13:19:59.606Z,2.83
2023-02-06T13:22:44.615Z,3.58
2023-02-06T13:25:28.540Z,3.38
2023-02-06T13:27:56.582Z,2.90
2023-02-06T13:30:32.621Z,2.33
2023-02-06T13:33:20.326Z,2.42
2023-02-06T13:35:58.414Z,2.90
2023-02-06T13:38:38.417Z,3.33
2023-02-06T13:41:18.300Z,5.13
2023-02-06T13:44:09.128Z,3.53
2023-02-06T13:46:51.631Z,3.80
2023-02-06T13:49:29.754Z,3.87
2023-02-06T13:52:16.159Z,3.13
2023-02-06T13:55:29.471Z,3.47
2023-02-06T13:58:17.732Z,3.77
2023-02-06T14:00:48.072Z,2.90
2023-02-06T14:03:27.603Z,3.17
2023-02-06T14:06:27.873Z,3.03
2023-02-06T14:09:19.319Z,2.87
2023-02-06T14:12:20.478Z,3.60
2023-02-06T14:15:07.062Z,4.60
2023-02-06T14:17:40.303Z,2.15
2023-02-06T14:20:22.282Z,2.63
2023-02-06T14:23:03.313Z,2.47
2023-02-06T14:25:52.251Z,2.67
2023-02-06T14:28:24.274Z,2.83
2023-02-06T14:30:55.657Z,3.77
2023-02-06T14:33:41.438Z,3.63
2023-02-06T14:36:22.989Z,2.70
2023-02-06T14:38:59.174Z,2.90
2023-02-06T14:43:54.339Z,2.25
2023-02-06T14:46:21.711Z,2.43
2023-02-06T14:48:49.750Z,4.73
2023-02-06T14:51:24.589Z,2.93
2023-02-06T14:53:52.717Z,2.67
2023-02-06T14:56:40.638Z,2.17
2023-02-06T14:59:13.149Z,1.70
2023-02-06T15:01:41.729Z,1.27
2023-02-06T15:04:15.913Z,4.03
2023-02-06T15:06:52.741Z,2.07
2023-02-06T15:09:24.401Z,3.23
2023-02-06T15:14:36.945Z,3.17
2023-02-06T15:17:05.480Z,2.23
2023-02-06T15:19:35.502Z,1.60
2023-02-06T15:22:05.114Z,3.50
2023-02-06T15:24:47.274Z,1.50
2023-02-06T15:27:20.064Z,3.20
2023-02-06T15:29:48.563Z,2.33
2023-02-06T15:32:25.622Z,2.53
2023-02-06T15:34:54.634Z,1.37
2023-02-06T15:37:22.191Z,6.20
2023-02-06T15:39:48.989Z,2.63
2023-02-06T15:42:17.483Z,3.30
2023-02-06T15:44:44.190Z,2.37
2023-02-06T15:47:14.138Z,3.47
2023-02-06T15:49:52.306Z,2.63
2023-02-06T15:52:33.524Z,3.23
2023-02-06T15:57:44.333Z,2.10
2023-02-06T16:00:24.534Z,3.73
2023-02-06T16:02:53.595Z,1.63
2023-02-06T16:05:53.919Z,4.57
2023-02-06T16:08:21.860Z,1.90
2023-02-06T16:11:39.461Z,4.23
2023-02-06T16:14:16.972Z,2.00
2023-02-06T16:16:55.131Z,2.67
2023-02-06T16:19:37.033Z,1.47
2023-02-06T16:22:15.117Z,2.03
2023-02-06T16:24:42.961Z,2.97
2023-02-06T16:27:29.841Z,5.47
2023-02-06T16:29:57.279Z,2.35
2023-02-06T16:32:30.648Z,2.07
2023-02-06T16:34:57.451Z,3.03
2023-02-06T16:37:36.074Z,3.07
2023-02-06T16:40:02.623Z,4.50
2023-02-06T16:42:37.534Z,1.90
2023-02-06T16:45:24.560Z,5.47
2023-02-06T16:47:51.335Z,2.92
2023-02-06T16:50:18.171Z,1.97
2023-02-06T16:52:51.276Z,1.80
2023-02-06T16:55:23.459Z,1.17
2023-02-06T16:57:52.370Z,3.03
2023-02-06T17:00:20.412Z,2.70
2023-02-06T17:02:48.935Z,3.27
2023-02-06T17:05:16.316Z,1.60
2023-02-06T17:07:44.322Z,1.87
2023-02-06T17:10:13.685Z,1.83
2023-02-06T17:12:41.925Z,4.70
2023-02-06T17:15:09.035Z,1.67
2023-02-06T17:17:35.578Z,6.33
2023-02-06T17:20:05.858Z,2.17
2023-02-06T17:22:36.227Z,3.53
2023-02-06T17:28:20.311Z,2.00
2023-02-06T17:30:51.056Z,2.93
2023-02-06T17:33:17.882Z,2.73
2023-02-06T17:35:48.797Z,2.07
2023-02-06T17:38:18.475Z,8.13
2023-02-06T17:40:47.181Z,3.23
2023-02-06T17:43:13.642Z,2.43
2023-02-06T17:45:40.574Z,3.93
2023-02-06T17:48:10.430Z,2.77
2023-02-06T17:50:38.207Z,4.90
2023-02-06T17:53:05.897Z,4.20
2023-02-06T17:55:34.650Z,3.30
2023-02-06T17:58:02.802Z,2.40
2023-02-06T18:00:32.383Z,6.80
2023-02-06T18:03:01.853Z,1.73
2023-02-06T18:05:29.418Z,3.97
2023-02-06T18:07:59.106Z,1.80
2023-02-06T18:10:29.936Z,4.33
2023-02-06T18:12:57.576Z,3.60
2023-02-06T18:15:26.851Z,4.17
2023-02-06T18:17:58.400Z,3.07
2023-02-06T18:20:26.678Z,3.07
2023-02-06T18:22:53.986Z,2.07
2023-02-06T18:25:20.929Z,2.93
2023-02-06T18:27:48.032Z,2.27
2023-02-06T18:30:14.851Z,2.83
2023-02-06T18:33:13.764Z,3.47
2023-02-06T18:35:41.074Z,2.43
2023-02-06T18:38:10.077Z,4.23
2023-02-06T18:40:43.569Z,5.13
2023-02-06T18:43:10.326Z,3.73
2023-02-06T18:45:37.836Z,3.73
2023-02-06T18:51:11.679Z,3.72
2023-02-06T18:53:42.003Z,2.17
2023-02-06T18:56:08.783Z,3.33
2023-02-06T18:58:39.352Z,2.73
2023-02-06T19:01:16.279Z,2.03
2023-02-06T19:03:51.086Z,2.13
2023-02-06T19:06:25.051Z,3.30
2023-02-06T19:08:58.881Z,3.47
2023-02-06T19:11:26.815Z,6.93
2023-02-06T19:13:54.617Z,2.30
2023-02-06T19:16:29.599Z,4.00
2023-02-06T19:19:10.989Z,5.18
2023-02-06T19:21:40.560Z,3.30
2023-02-06T19:24:11.881Z,3.80
2023-02-06T19:26:39.994Z,4.47
2023-02-06T19:34:37.723Z,3.47
2023-02-06T19:37:05.615Z,2.83
2023-02-06T19:39:34.453Z,3.77
2023-02-06T19:42:13.025Z,3.83
2023-02-06T19:45:06.383Z,3.53
2023-02-06T19:47:35.964Z,5.43
2023-02-06T19:50:04.053Z,5.23
2023-02-06T19:52:38.880Z,6.63
2023-02-06T19:55:10.632Z,2.27
2023-02-06T19:57:39.723Z,5.30
2023-02-06T20:00:10.762Z,3.60
2023-02-06T20:02:40.666Z,3.00
2023-02-06T20:05:12.487Z,5.40
2023-02-06T20:07:41.833Z,5.20
2023-02-06T20:10:08.899Z,3.87
2023-02-06T20:12:37.169Z,3.80
2023-02-06T20:15:04.962Z,4.37
2023-02-06T20:17:31.430Z,5.10
2023-02-06T20:20:01.003Z,3.20
2023-02-06T20:22:27.965Z,4.73
2023-02-06T20:24:59.393Z,7.07
2023-02-06T20:27:29.986Z,3.03
2023-02-06T20:29:59.222Z,4.23
2023-02-06T20:32:27.514Z,3.57
2023-02-06T20:34:54.225Z,4.17
2023-02-06T20:37:21.624Z,4.33
2023-02-06T20:39:53.277Z,5.47
2023-02-06T20:42:24.679Z,3.77
2023-02-06T20:44:51.857Z,4.63
2023-02-06T20:47:18.487Z,3.13
2023-02-06T20:49:45.161Z,3.77
2023-02-06T20:52:12.124Z,3.17
2023-02-06T20:54:38.640Z,5.43
2023-02-06T20:57:07.226Z,2.73
2023-02-06T20:59:34.899Z,5.50
2023-02-06T21:02:03.858Z,3.63
2023-02-06T21:04:35.782Z,5.33
2023-02-06T21:07:04.133Z,3.17
2023-02-06T21:09:31.201Z,3.83
2023-02-06T21:12:01.054Z,4.47
2023-02-06T21:14:30.036Z,2.50
2023-02-06T21:17:01.588Z,3.77
2023-02-06T21:19:29.927Z,4.47
2023-02-06T21:22:12.659Z,4.00
2023-02-06T21:24:41.674Z,4.60
2023-02-06T21:27:08.699Z,3.63
2023-02-06T21:29:36.227Z,4.20
2023-02-06T21:32:13.609Z,3.83
2023-02-06T21:34:46.275Z,4.50
2023-02-06T21:37:13.209Z,3.47
2023-02-06T21:39:41.516Z,3.70
2023-02-06T21:42:10.756Z,3.57
2023-02-06T21:47:25.737Z,9.10
2023-02-06T21:49:52.491Z,5.37
2023-02-06T21:52:19.252Z,4.17
2023-02-06T21:54:46.814Z,4.13
2023-02-06T21:57:13.315Z,3.03
2023-02-06T21:59:41.706Z,2.87
2023-02-06T22:02:09.651Z,3.50
2023-02-06T22:04:37.653Z,3.60
2023-02-06T22:07:05.344Z,2.80
2023-02-06T22:09:33.143Z,4.43
2023-02-06T22:12:04.612Z,4.07
2023-02-06T22:14:31.377Z,3.60
2023-02-06T22:17:01.406Z,3.17
2023-02-06T22:19:29.421Z,3.27
2023-02-06T22:22:01.490Z,2.57
2023-02-06T22:24:28.039Z,2.97
2023-02-06T22:26:56.190Z,2.40
2023-02-06T22:29:23.228Z,3.07
2023-02-06T22:31:50.297Z,4.53
2023-02-06T22:34:17.862Z,4.03
2023-02-06T22:36:45.925Z,3.47
2023-02-06T22:39:13.902Z,2.80
2023-02-06T22:41:41.490Z,3.20
2023-02-06T22:44:08.708Z,3.07
2023-02-06T22:46:42.866Z,2.43
2023-02-06T22:49:10.847Z,1.83
2023-02-06T22:51:38.671Z,4.53
2023-02-06T22:54:05.805Z,4.87
2023-02-06T22:56:38.335Z,3.97
2023-02-06T22:59:04.719Z,3.13
2023-02-06T23:01:34.700Z,4.60
2023-02-06T23:04:02.769Z,4.33
2023-02-06T23:06:30.204Z,4.23
2023-02-06T23:08:57.975Z,3.30
2023-02-06T23:11:25.085Z,4.10
2023-02-06T23:13:55.747Z,3.10
2023-02-06T23:16:26.028Z,3.10
2023-02-06T23:19:14.526Z,2.37
2023-02-06T23:21:41.803Z,3.43
2023-02-06T23:24:10.657Z,1.83
2023-02-06T23:26:40.966Z,3.03
2023-02-06T23:29:09.666Z,1.93
2023-02-06T23:31:41.952Z,2.90
2023-02-06T23:34:11.227Z,3.87
2023-02-06T23:36:40.748Z,3.07
2023-02-06T23:39:08.528Z,3.30
2023-02-06T23:41:35.660Z,2.73
2023-02-06T23:44:07.598Z,2.30
2023-02-06T23:46:35.258Z,3.23
2023-02-06T23:49:01.775Z,2.43
2023-02-06T23:51:29.607Z,3.30
2023-02-06T23:53:56.526Z,1.97
2023-02-06T23:56:29.633Z,5.37
2023-02-06T23:58:56.768Z,2.70
